createdAt,value
2023-07-21T19:18:15.600Z,16.70
2023-07-21T19:20:42.285Z,16.80
2023-07-21T19:23:09.440Z,16.70
2023-07-21T19:25:36.185Z,16.50
2023-07-21T19:28:03.079Z,16.40
2023-07-21T19:30:29.755Z,16.40
2023-07-21T19:32:56.533Z,16.30
2023-07-21T19:35:23.209Z,16.20
2023-07-21T19:37:52.740Z,16.20
2023-07-21T19:40:20.080Z,16.10
2023-07-21T19:42:46.769Z,16.20
2023-07-21T19:45:13.891Z,16.20
2023-07-21T19:47:40.942Z,16.20
2023-07-21T19:50:08.027Z,16.20
2023-07-21T19:52:34.782Z,16.10
2023-07-21T19:55:01.428Z,16.00
2023-07-21T19:57:28.028Z,15.90
2023-07-21T19:59:55.091Z,15.90
2023-07-21T20:02:21.783Z,15.70
2023-07-21T20:04:48.589Z,15.60
2023-07-21T20:07:15.295Z,15.50
2023-07-21T20:09:41.989Z,15.40
2023-07-21T20:12:09.014Z,15.40
2023-07-21T20:14:35.620Z,15.30
2023-07-21T20:17:02.339Z,15.30
2023-07-21T20:19:29.760Z,15.30
2023-07-21T20:21:56.393Z,15.30
2023-07-21T20:24:23.134Z,15.30
2023-07-21T20:26:50.079Z,15.30
2023-07-21T20:29:16.674Z,15.30
2023-07-21T20:31:43.385Z,15.20
2023-07-21T20:34:10.018Z,15.20
2023-07-21T20:36:37.135Z,15.10
2023-07-21T20:39:03.901Z,15.10
2023-07-21T20:41:30.733Z,15.00
2023-07-21T20:43:57.536Z,14.90
2023-07-21T20:46:24.400Z,14.90
2023-07-21T20:48:51.477Z,14.90
2023-07-21T20:51:18.038Z,14.80
2023-07-21T20:53:44.664Z,14.80
2023-07-21T20:56:12.435Z,14.70
2023-07-21T20:58:39.064Z,14.80
2023-07-21T21:01:05.897Z,14.80
2023-07-21T21:03:32.643Z,14.80
2023-07-21T21:06:00.462Z,14.80
2023-07-21T21:08:27.488Z,14.80
2023-07-21T21:10:54.732Z,14.80
2023-07-21T21:13:22.829Z,14.80
2023-07-21T21:15:50.118Z,14.80
2023-07-21T21:18:16.926Z,14.90
2023-07-21T21:20:45.791Z,14.90
2023-07-21T21:23:13.151Z,15.10
2023-07-21T21:25:39.888Z,15.20
2023-07-21T21:28:08.254Z,15.20
2023-07-21T21:30:34.944Z,15.30
2023-07-21T21:33:01.668Z,15.30
2023-07-21T21:35:28.616Z,15.30
2023-07-21T21:37:55.200Z,15.30
2023-07-21T21:40:21.823Z,15.20
2023-07-21T21:42:48.450Z,15.10
2023-07-21T21:45:15.072Z,15.10
2023-07-21T21:47:41.689Z,15.20
2023-07-21T21:50:08.592Z,15.20
2023-07-21T21:52:35.205Z,15.30
2023-07-21T21:55:01.866Z,15.30
2023-07-21T21:57:28.806Z,15.20
2023-07-21T21:59:55.501Z,15.20
2023-07-21T22:02:22.129Z,15.20
2023-07-21T22:04:49.006Z,15.20
2023-07-21T22:07:15.784Z,15.10
2023-07-21T22:09:42.449Z,15.10
2023-07-21T22:12:12.296Z,15.00
2023-07-21T22:14:54.493Z,15.00
2023-07-21T22:17:22.620Z,15.00
2023-07-21T22:20:03.590Z,15.00
2023-07-21T22:22:36.055Z,14.90
2023-07-21T22:25:03.228Z,14.80
2023-07-21T22:27:30.254Z,14.90
2023-07-21T22:29:56.845Z,14.90
2023-07-21T22:32:23.661Z,14.90
2023-07-21T22:34:50.935Z,14.80
2023-07-21T22:37:17.681Z,14.70
2023-07-21T22:39:44.464Z,14.70
2023-07-21T22:42:11.377Z,14.70
2023-07-21T22:44:38.003Z,14.70
2023-07-21T22:47:04.827Z,14.80
2023-07-21T22:49:31.488Z,14.90
2023-07-21T22:51:58.121Z,14.90
2023-07-21T22:54:24.691Z,14.90
2023-07-21T22:56:51.806Z,15.00
2023-07-21T22:59:18.476Z,15.00
2023-07-21T23:01:45.245Z,15.10
2023-07-21T23:04:11.947Z,15.00
2023-07-21T23:06:40.561Z,15.10
2023-07-21T23:09:07.647Z,15.10
2023-07-21T23:11:34.464Z,15.10
2023-07-21T23:14:01.135Z,15.20
2023-07-21T23:16:28.021Z,15.10
2023-07-21T23:18:54.789Z,15.10
2023-07-21T23:21:21.508Z,14.90
2023-07-21T23:23:48.132Z,14.90
2023-07-21T23:26:14.826Z,15.00
2023-07-21T23:28:41.390Z,14.90
2023-07-21T23:31:09.286Z,14.80
2023-07-21T23:33:36.014Z,14.60
2023-07-21T23:36:02.663Z,14.60
2023-07-21T23:38:30.251Z,14.50
2023-07-21T23:40:57.117Z,14.40
2023-07-21T23:43:24.906Z,14.40
2023-07-21T23:45:57.993Z,14.20
2023-07-21T23:48:25.965Z,14.20
2023-07-21T23:50:52.614Z,14.10
2023-07-21T23:53:19.177Z,14.00
2023-07-21T23:55:46.272Z,13.90
2023-07-21T23:58:12.855Z,13.90
